Latest Coastal Weather Observations for Hogan Island

IDV60701

Issued at 4:51 am EST Saturday 2 July 2016 (issued every 10 minutes, with the page automatically refreshed every 10 minutes)

About coastal observations | Map of coastal stations | Coastal observations for VIC | Marine services | Other Formats
Station Details ID: 200838 Name: HOGAN ISLAND Lat: -39.22 Lon: 146.98 Height: 116.0 m
Data from the previous 72 hours. | See also: Recent months at Hogan Island
Date/Time
EST
Temp
°C
Wind Pressure Rain since
9am
mm
Weather Cloud Vis
km
Sea
Height
m
Swell
Dir  Spd
kts
Gust
kts
hPa Trend Height
m
Period
s
Dir
02/04:30am 11.7 W 32 37 1018.1 - 2.2 - - - - - - -
02/04:00am 11.3 W 33 40 1018.1 - 2.2 - - - - - - -
02/03:30am 11.6 W 33 39 1018.1 - 2.2 - - - - - - -
02/03:00am 11.3 WNW 30 38 1018.3 - 2.0 - - - - - - -
02/02:55am 10.9 WNW 29 39 1018.4 - 2.0 - - - - - - -
02/02:30am 11.2 WNW 32 39 1017.9 - 2.0 - - - - - - -
02/02:00am 10.8 W 33 39 1018.0 - 2.0 - - - - - - -
02/01:52am 11.1 W 28 38 1018.0 - 1.8 - - - - - - -
02/01:30am 10.7 W 31 38 1018.1 - 1.2 - - - - - - -
02/01:00am 10.9 WNW 32 37 1017.9 - 0.6 - - - - - - -
02/12:30am 10.6 WNW 27 32 1018.4 - 0.4 - - - - - - -
02/12:00am 10.5 WNW 28 34 1018.7 - 0.4 - - - - - - -
 
Date/Time
EST
Temp
°C
Wind Pressure Rain since
9am
mm
Weather Cloud Vis
km
Sea
Height
m
Swell
Dir  Spd
kts
Gust
kts
hPa Trend Height
m
Period
s
Dir
01/11:30pm 10.5 WNW 30 33 1018.7 - 0.4 - - - - - - -
01/11:00pm 11.1 WNW 25 31 1019.0 - 0.4 - - - - - - -
01/10:30pm 10.8 WNW 25 28 1019.0 - 0.4 - - - - - - -
01/10:00pm 10.3 WNW 25 29 1019.1 - 0.4 - - - - - - -
01/09:30pm 10.4 WNW 27 32 1019.1 - 0.4 - - - - - - -
01/09:00pm 11.2 W 30 35 1019.2 - 0.4 - - - - - - -
01/08:48pm 11.0 W 29 34 1018.9 - 0.4 - - - - - - -
01/08:30pm 11.0 WNW 23 27 1019.1 - 0.0 - - - - - - -
01/08:22pm 11.0 WNW 22 26 1019.2 - 0.0 - - - - - - -
01/08:00pm 11.1 W 25 29 1019.0 - 0.0 - - - - - - -
01/07:30pm 11.5 W 28 32 1018.7 - 0.0 - - - - - - -
01/07:00pm 11.3 W 27 31 1018.6 - 0.0 - - - - - - -
01/06:30pm 11.3 W 28 33 1018.2 - 0.0 - - - - - - -
01/06:00pm 11.3 W 31 37 1018.1 - 0.0 - - - - - - -
01/05:30pm 11.3 W 28 34 1017.7 - 0.0 - - - - - - -
01/05:00pm 11.0 W 29 34 1017.2 - 0.0 - - - - - - -
01/04:30pm 11.5 W 26 33 1017.0 - 0.0 - - - - - - -
01/04:00pm 10.1 W 30 38 1017.0 - 0.0 - - - - - - -
01/03:52pm 11.4 W 28 38 1016.6 - 0.0 - - - - - - -
01/03:30pm 11.1 W 27 33 1016.8 - 0.0 - - - - - - -
01/03:00pm 11.7 W 30 35 1016.5 - 0.0 - - - - - - -
01/02:30pm 12.4 WSW 29 35 1016.3 - 0.0 - - - - - - -
01/02:00pm 11.6 WSW 31 36 1016.0 - 0.0 - - - - - - -
01/01:30pm 11.7 WSW 32 37 1015.8 - 0.0 - - - - - - -
01/01:14pm 11.5 WSW 31 41 1015.6 - 0.0 - - - - - - -
01/01:00pm 11.7 W 35 43 1015.7 - 0.0 - - - - - - -
01/12:52pm 11.7 WSW 33 43 1015.4 - 0.0 - - - - - - -
01/12:30pm 11.7 WSW 28 33 1015.7 - 0.0 - - - - - - -
01/12:00pm 11.7 WSW 31 39 1015.7 - 0.0 - - - - - - -
01/11:30am 11.7 WSW 26 34 1015.8 - 0.0 - - - - - - -
01/11:00am 10.9 WSW 29 35 1015.7 - 0.0 - - - - - - -
01/10:30am 12.5 WSW 26 31 1015.3 - 0.0 - - - - - - -
01/10:00am 12.3 WSW 26 29 1015.1 - 0.0 - - - - - - -
01/09:30am 11.7 WSW 26 30 1014.7 - 0.0 - - - - - - -
01/09:00am 11.6 WSW 26 31 1014.6 - 1.0 - - - - - - -
01/08:30am 11.0 SW 27 32 1014.0 - 1.0 - - - - - - -
01/08:00am 11.1 SW 27 32 1013.4 - 1.0 - - - - - - -
01/07:30am 11.2 SW 27 33 1012.8 - 0.8 - - - - - - -
01/07:00am 10.8 SW 26 31 1012.2 - 0.8 - - - - - - -
01/06:30am 10.2 SW 23 28 1011.6 - 0.8 - - - - - - -
01/06:00am 10.4 WSW 18 30 1011.4 - 0.8 - - - - - - -
01/05:56am 10.1 W 18 31 1011.2 - 0.8 - - - - - - -
01/05:30am 9.3 WNW 24 28 1010.5 - 0.8 - - - - - - -
01/05:00am 8.9 WNW 26 31 1010.0 - 0.8 - - - - - - -
01/04:30am 9.0 WNW 26 32 1009.6 - 0.8 - - - - - - -
01/04:00am 9.0 WNW 27 32 1009.3 - 0.8 - - - - - - -
01/03:30am 9.0 WNW 26 31 1009.1 - 0.8 - - - - - - -
01/03:00am 8.9 WNW 26 30 1008.9 - 0.8 - - - - - - -
01/02:30am 9.3 WNW 27 32 1008.4 - 0.8 - - - - - - -
01/02:00am 9.1 WNW 23 28 1008.0 - 0.8 - - - - - - -
01/01:30am 8.7 WNW 24 30 1007.8 - 0.8 - - - - - - -
01/01:00am 8.9 W 26 31 1007.6 - 0.8 - - - - - - -
01/12:32am 9.6 WNW 24 34 1007.4 - 0.8 - - - - - - -
01/12:30am 9.7 WNW 23 30 1007.3 - 0.8 - - - - - - -
01/12:00am 9.5 WNW 24 29 1007.7 - 0.8 - - - - - - -
 
Date/Time
EST
Temp
°C
Wind Pressure Rain since
9am
mm
Weather Cloud Vis
km
Sea
Height
m
Swell
Dir  Spd
kts
Gust
kts
hPa Trend Height
m
Period
s
Dir
30/11:30pm 9.0 WNW 24 29 1007.4 - 0.8 - - - - - - -
30/11:00pm 9.2 WNW 25 29 1007.1 - 0.8 - - - - - - -
30/10:30pm 9.0 WNW 25 30 1006.9 - 0.8 - - - - - - -
30/10:00pm 9.1 WNW 23 30 1006.5 - 0.8 - - - - - - -
30/09:30pm 9.2 WNW 25 30 1006.2 - 0.8 - - - - - - -
30/09:00pm 9.4 WNW 27 33 1006.2 - 0.8 - - - - - - -
30/08:44pm 9.4 NW 25 35 1006.4 - 0.8 - - - - - - -
30/08:30pm 9.6 NW 23 29 1006.2 - 0.8 - - - - - - -
30/08:00pm 9.5 NW 17 25 1006.3 - 0.8 - - - - - - -
30/07:30pm 9.4 NW 21 25 1006.2 - 0.8 - - - - - - -
30/07:00pm 9.8 WNW 27 35 1006.2 - 0.8 - - - - - - -
30/06:53pm 10.0 WNW 22 33 1006.1 - 0.6 - - - - - - -
30/06:30pm 9.9 WNW 24 33 1006.1 - 0.4 - - - - - - -
30/06:28pm 9.9 WNW 25 35 1006.1 - 0.4 - - - - - - -
30/06:00pm 11.7 NW 26 34 1005.5 - 0.0 - - - - - - -
30/05:44pm 11.9 NW 22 33 1005.2 - 0.0 - - - - - - -
30/05:30pm 12.1 NW 27 31 1005.2 - 0.0 - - - - - - -
30/05:00pm 12.2 NW 27 30 1004.8 - 0.0 - - - - - - -
30/04:30pm 12.0 NNW 16 21 1005.1 - 0.0 - - - - - - -
30/04:00pm 12.0 NNW 15 23 1005.2 - 0.0 - - - - - - -
30/03:30pm 12.0 NNW 12 18 1005.2 - 0.0 - - - - - - -
30/03:00pm 12.3 N 17 24 1005.1 - 0.0 - - - - - - -
30/02:30pm 12.3 N 20 26 1005.2 - 0.0 - - - - - - -
30/02:00pm 12.1 N 20 27 1005.5 - 0.0 - - - - - - -
30/01:30pm 12.2 N 21 24 1006.0 - 0.0 - - - - - - -
30/01:00pm 11.7 N 22 27 1006.5 - 0.0 - - - - - - -
30/12:30pm 11.4 N 21 26 1007.2 - 0.0 - - - - - - -
30/12:00pm 11.6 N 19 25 1008.3 - 0.0 - - - - - - -
30/11:30am 11.5 N 20 24 1008.9 - 0.0 - - - - - - -
30/11:00am 11.6 N 20 25 1009.7 - 0.0 - - - - - - -
30/10:30am 11.7 N 22 27 1010.1 - 0.0 - - - - - - -
30/10:00am 11.7 N 22 28 1010.4 - 0.0 - - - - - - -
30/09:30am 11.4 N 24 29 1010.5 - 0.0 - - - - - - -
30/09:00am 11.7 N 23 29 1010.9 - 0.0 - - - - - - -
30/08:30am 11.4 N 22 26 1011.1 - 0.0 - - - - - - -
30/08:00am 11.2 N 17 22 1011.8 - 0.0 - - - - - - -
30/07:30am 11.2 N 15 19 1012.2 - 0.0 - - - - - - -
30/07:00am 10.8 N 15 21 1012.4 - 0.0 - - - - - - -
30/06:30am 11.0 N 15 20 1012.6 - 0.0 - - - - - - -
30/06:00am 10.9 N 15 19 1013.3 - 0.0 - - - - - - -
30/05:30am 11.3 NNW 18 26 1013.4 - 0.0 - - - - - - -
30/05:22am 11.2 NNW 17 23 1013.6 - 0.0 - - - - - - -
30/05:00am 10.5 NNW 9 12 1013.9 - 0.0 - - - - - - -
30/04:30am 10.6 WNW 8 12 1014.5 - 0.0 - - - - - - -
30/04:00am 10.5 WNW 9 11 1014.8 - 0.0 - - - - - - -
30/03:30am 10.7 WNW 9 11 1015.2 - 0.0 - - - - - - -
30/03:00am 10.8 W 11 13 1015.8 - 0.0 - - - - - - -
30/02:30am 11.3 WNW 14 16 1016.2 - 0.0 - - - - - - -
30/02:00am 10.6 NW 10 12 1016.5 - 0.0 - - - - - - -
30/01:30am 10.9 NW 11 13 1016.9 - 0.0 - - - - - - -
30/01:00am 10.9 NW 11 13 1017.4 - 0.0 - - - - - - -
30/12:30am 10.9 NW 11 13 1017.9 - 0.0 - - - - - - -
30/12:00am 11.4 NNW 8 13 1018.4 - 0.0 - - - - - - -
 
Date/Time
EST
Temp
°C
Wind Pressure Rain since
9am
mm
Weather Cloud Vis
km
Sea
Height
m
Swell
Dir  Spd
kts
Gust
kts
hPa Trend Height
m
Period
s
Dir
29/11:30pm 11.3 N 11 15 1018.4 - 0.0 - - - - - - -
29/11:00pm 10.9 N 12 15 1018.6 - 0.0 - - - - - - -
29/10:30pm 11.3 N 13 16 1018.9 - 0.0 - - - - - - -
29/10:00pm 11.9 NNW 12 17 1019.2 - 0.0 - - - - - - -
29/09:30pm 11.6 N 12 16 1019.4 - 0.0 - - - - - - -
29/09:00pm 11.1 N 11 13 1019.9 - 0.0 - - - - - - -
29/08:30pm 11.4 N 9 12 1020.2 - 0.0 - - - - - - -
29/08:00pm 11.8 NNW 10 13 1020.5 - 0.0 - - - - - - -
29/07:30pm 11.7 NW 12 15 1020.7 - 0.0 - - - - - - -
29/07:00pm 11.9 NW 14 17 1020.9 - 0.0 - - - - - - -
29/06:30pm 11.9 NW 14 18 1021.1 - 0.0 - - - - - - -
29/06:00pm 12.2 WNW 15 20 1021.4 - 0.0 - - - - - - -
29/05:30pm 12.4 WNW 17 21 1021.6 - 0.0 - - - - - - -
29/05:00pm 12.4 NW 12 17 1021.7 - 0.0 - - - - - - -
29/04:30pm 12.4 WNW 14 17 1021.9 - 0.0 - - - - - - -
29/04:00pm 12.9 WNW 19 23 1021.8 - 0.0 - - - - - - -
29/03:30pm 13.1 WNW 22 25 1021.8 - 0.0 - - - - - - -
29/03:00pm 12.9 W 28 32 1021.8 - 0.0 - - - - - - -
29/02:30pm 12.5 W 23 27 1022.1 - 0.0 - - - - - - -
29/02:00pm 12.7 WNW 24 27 1022.3 - 0.0 - - - - - - -
29/01:30pm 12.8 WNW 27 31 1022.3 - 0.0 - - - - - - -
29/01:00pm 13.2 WNW 28 32 1022.6 - 0.0 - - - - - - -
29/12:30pm 12.7 WNW 21 25 1023.3 - 0.0 - - - - - - -
29/12:00pm 12.6 WNW 25 28 1023.5 - 0.0 - - - - - - -
29/11:30am 12.9 WNW 24 26 1024.0 - 0.0 - - - - - - -
29/11:00am 12.3 WNW 25 28 1024.4 - 0.0 - - - - - - -
29/10:30am 12.9 WNW 23 28 1024.6 - 0.0 - - - - - - -
29/10:00am 12.3 WNW 23 28 1024.8 - 0.0 - - - - - - -
29/09:30am 12.1 WNW 24 29 1024.7 - 0.0 - - - - - - -
29/09:00am 11.8 WNW 25 30 1024.6 - 0.0 - - - - - - -
29/08:30am 11.7 WNW 22 25 1024.4 - 0.0 - - - - - - -
29/08:00am 11.9 WNW 21 25 1024.2 - 0.0 - - - - - - -
29/07:30am 12.0 W 25 29 1023.9 - 0.0 - - - - - - -
29/07:00am 12.0 WNW 20 27 1023.7 - 0.0 - - - - - - -
29/06:30am 12.0 WNW 24 28 1023.4 - 0.0 - - - - - - -
29/06:00am 12.1 W 27 31 1022.9 - 0.0 - - - - - - -
29/05:30am 12.0 WNW 30 35 1022.5 - 0.0 - - - - - - -
29/05:00am 12.1 WNW 28 35 1022.3 - 0.0 - - - - - - -

Other Formats:

Comma delimited format used in spreadsheet applications
http://www.bom.gov.au/fwo/IDV60701/IDV60701.94949.axf

JavaScript Object Notation format (JSON) in row-major order
http://www.bom.gov.au/fwo/IDV60701/IDV60701.94949.json